createdAt,value
2023-02-09T00:01:28.955Z,85.10
2023-02-09T00:03:57.953Z,85.10
2023-02-09T00:06:26.237Z,84.50
2023-02-09T00:08:53.734Z,84.60
2023-02-09T00:11:47.801Z,84.00
2023-02-09T00:14:16.426Z,83.70
2023-02-09T00:16:43.372Z,84.30
2023-02-09T00:19:10.886Z,84.40
2023-02-09T00:21:38.209Z,84.50
2023-02-09T00:24:06.096Z,84.00
2023-02-09T00:26:33.426Z,84.20
2023-02-09T00:29:00.484Z,84.30
2023-02-09T00:31:27.246Z,83.90
2023-02-09T00:33:54.051Z,84.00
2023-02-09T00:36:21.386Z,84.40
2023-02-09T00:38:48.272Z,84.70
2023-02-09T00:41:16.337Z,84.20
2023-02-09T00:43:43.264Z,84.80
2023-02-09T00:46:10.180Z,85.30
2023-02-09T00:48:36.956Z,85.60
2023-02-09T00:51:04.009Z,86.10
2023-02-09T00:53:30.793Z,85.60
2023-02-09T00:55:57.637Z,85.90
2023-02-09T00:58:24.414Z,86.30
2023-02-09T01:00:52.347Z,86.00
2023-02-09T01:03:19.045Z,86.30
2023-02-09T01:05:45.833Z,87.00
2023-02-09T01:08:12.639Z,86.00
2023-02-09T01:10:39.549Z,85.70
2023-02-09T01:13:06.530Z,85.90
2023-02-09T01:15:33.451Z,86.00
2023-02-09T01:18:00.283Z,86.20
2023-02-09T01:20:27.974Z,86.30
2023-02-09T01:22:54.744Z,86.40
2023-02-09T01:25:21.566Z,86.90
2023-02-09T01:27:48.294Z,87.40
2023-02-09T01:30:15.626Z,87.70
2023-02-09T01:32:42.503Z,87.50
2023-02-09T01:35:09.685Z,87.10
2023-02-09T01:37:36.625Z,87.00
2023-02-09T01:40:04.740Z,87.30
2023-02-09T01:42:31.691Z,86.90
2023-02-09T01:45:08.697Z,87.30
2023-02-09T01:47:43.735Z,86.80
2023-02-09T01:50:11.353Z,88.00
2023-02-09T01:52:38.461Z,88.40
2023-02-09T01:55:08.641Z,88.70
2023-02-09T01:57:39.875Z,88.90
2023-02-09T02:00:15.750Z,88.60
2023-02-09T02:02:46.842Z,89.00
2023-02-09T02:05:14.422Z,89.50
2023-02-09T02:08:00.823Z,89.70
2023-02-09T02:10:27.646Z,89.90
2023-02-09T02:12:54.836Z,90.20
2023-02-09T02:15:27.522Z,90.20
2023-02-09T02:18:15.823Z,90.40
2023-02-09T02:20:56.656Z,90.70
2023-02-09T02:23:53.503Z,90.60
2023-02-09T02:26:23.168Z,90.30
2023-02-09T02:29:08.665Z,90.30
2023-02-09T02:31:38.492Z,90.30
2023-02-09T02:34:09.305Z,90.30
2023-02-09T02:36:47.805Z,90.30
2023-02-09T02:39:38.123Z,90.40
2023-02-09T02:42:26.159Z,90.40
2023-02-09T02:45:13.740Z,90.70
2023-02-09T02:47:46.470Z,90.30
2023-02-09T02:50:16.370Z,90.00
2023-02-09T02:52:47.558Z,90.10
2023-02-09T02:55:17.641Z,90.20
2023-02-09T02:57:50.135Z,90.30
2023-02-09T03:00:26.288Z,90.20
2023-02-09T03:02:56.491Z,90.20
2023-02-09T03:05:24.780Z,90.50
2023-02-09T03:07:51.871Z,90.30
2023-02-09T03:10:27.444Z,90.40
2023-02-09T03:13:07.900Z,90.40
2023-02-09T03:16:15.772Z,90.60
2023-02-09T03:19:10.168Z,90.70
2023-02-09T03:21:46.747Z,90.70
2023-02-09T03:24:55.612Z,90.60
2023-02-09T03:27:27.060Z,90.90
2023-02-09T03:29:57.763Z,91.10
2023-02-09T03:32:26.005Z,91.00
2023-02-09T03:34:54.460Z,91.20
2023-02-09T03:37:22.428Z,91.00
2023-02-09T03:39:49.283Z,91.30
2023-02-09T03:42:16.042Z,91.50
2023-02-09T03:44:42.845Z,91.40
2023-02-09T03:47:10.062Z,91.40
2023-02-09T03:49:41.850Z,91.40
2023-02-09T03:52:11.713Z,91.50
2023-02-09T03:54:38.735Z,91.20
2023-02-09T03:57:05.567Z,91.20
2023-02-09T03:59:35.474Z,91.50
2023-02-09T04:02:03.426Z,92.20
2023-02-09T04:04:30.476Z,91.60
2023-02-09T04:06:57.990Z,91.80
2023-02-09T04:09:26.119Z,92.60
2023-02-09T04:11:53.716Z,92.60
2023-02-09T04:14:20.625Z,92.40
2023-02-09T04:16:47.533Z,92.30
2023-02-09T04:19:14.474Z,92.60
2023-02-09T04:21:41.639Z,92.30
2023-02-09T04:24:08.881Z,92.40
2023-02-09T04:26:35.884Z,92.80
2023-02-09T04:29:02.749Z,92.40
2023-02-09T04:31:29.577Z,92.30
2023-02-09T04:33:56.357Z,92.40
2023-02-09T04:36:23.460Z,92.30
2023-02-09T04:38:50.782Z,92.20
2023-02-09T04:41:18.027Z,92.20
2023-02-09T04:43:48.796Z,92.50
2023-02-09T04:46:17.304Z,92.50
2023-02-09T04:48:45.073Z,92.40
2023-02-09T04:51:12.305Z,92.90
2023-02-09T04:53:39.105Z,93.00
2023-02-09T04:56:06.501Z,92.70
2023-02-09T04:58:52.300Z,92.90
2023-02-09T05:01:22.073Z,93.10
2023-02-09T05:03:48.896Z,93.10
2023-02-09T05:06:15.765Z,92.60
2023-02-09T05:08:42.550Z,92.60
2023-02-09T05:11:09.513Z,92.80
2023-02-09T05:13:36.310Z,92.60
2023-02-09T05:16:13.561Z,92.70
2023-02-09T05:18:40.373Z,92.50
2023-02-09T05:21:07.095Z,92.60
2023-02-09T05:23:34.251Z,92.40
2023-02-09T05:26:01.076Z,92.30
2023-02-09T05:28:28.045Z,92.60
2023-02-09T05:30:54.909Z,92.30
2023-02-09T05:33:23.345Z,92.30
2023-02-09T05:35:56.054Z,92.20
2023-02-09T05:38:23.256Z,92.10
2023-02-09T05:40:50.301Z,92.00
2023-02-09T05:43:17.357Z,92.20
2023-02-09T05:45:44.744Z,91.90
2023-02-09T05:48:11.426Z,91.90
2023-02-09T05:50:38.065Z,92.10
2023-02-09T05:53:04.835Z,91.90
2023-02-09T05:55:31.667Z,91.90
2023-02-09T05:57:58.373Z,92.00
2023-02-09T06:00:26.948Z,91.60
2023-02-09T06:02:53.667Z,91.60
2023-02-09T06:05:21.991Z,91.70
2023-02-09T06:07:49.123Z,91.90
2023-02-09T06:10:19.489Z,92.40
2023-02-09T06:12:46.673Z,91.90
2023-02-09T06:15:16.156Z,91.70
2023-02-09T06:17:43.223Z,92.00
2023-02-09T06:20:10.583Z,92.10
2023-02-09T06:22:37.425Z,91.80
2023-02-09T06:25:04.385Z,91.50
2023-02-09T06:27:31.168Z,91.30
2023-02-09T06:29:57.944Z,91.60
2023-02-09T06:32:24.652Z,91.50
2023-02-09T06:34:51.493Z,91.40
2023-02-09T06:37:18.318Z,91.40
2023-02-09T06:39:44.998Z,91.00
2023-02-09T06:42:11.812Z,90.80
2023-02-09T06:44:38.645Z,91.00
2023-02-09T06:47:05.422Z,91.20
2023-02-09T06:49:32.405Z,91.00
2023-02-09T06:51:59.308Z,91.10
2023-02-09T06:54:28.277Z,91.00
2023-02-09T06:56:55.609Z,91.50
2023-02-09T06:59:22.468Z,91.40
2023-02-09T07:01:54.752Z,91.00
2023-02-09T07:04:22.224Z,91.00
2023-02-09T07:06:48.992Z,90.80
2023-02-09T07:09:15.708Z,90.20
2023-02-09T07:11:42.685Z,90.10
2023-02-09T07:14:09.487Z,89.60
2023-02-09T07:16:36.237Z,90.00
2023-02-09T07:19:03.189Z,89.90
2023-02-09T07:21:29.874Z,89.80
2023-02-09T07:23:56.721Z,89.30
2023-02-09T07:26:23.496Z,88.60
2023-02-09T07:28:50.255Z,88.70
2023-02-09T07:31:17.224Z,89.60
2023-02-09T07:33:44.433Z,88.80
2023-02-09T07:36:13.336Z,89.30
2023-02-09T07:38:41.424Z,88.90
2023-02-09T07:41:17.099Z,88.60
2023-02-09T07:43:43.819Z,88.20
2023-02-09T07:46:13.511Z,88.00
2023-02-09T07:48:40.344Z,87.00
2023-02-09T07:51:07.148Z,87.20
2023-02-09T07:53:34.093Z,87.30
2023-02-09T07:56:00.865Z,88.00
2023-02-09T07:58:27.614Z,87.00
2023-02-09T08:00:54.381Z,86.90
2023-02-09T08:03:23.884Z,87.00
2023-02-09T08:06:43.427Z,87.40
2023-02-09T08:09:12.779Z,87.00
2023-02-09T08:11:45.618Z,86.90
2023-02-09T08:14:22.074Z,86.60
2023-02-09T08:16:50.210Z,85.30
2023-02-09T08:19:23.904Z,84.20
2023-02-09T08:21:51.421Z,83.70
2023-02-09T08:24:20.148Z,84.30
2023-02-09T08:26:46.930Z,84.60
2023-02-09T08:29:13.873Z,84.80
2023-02-09T08:31:40.828Z,84.50
2023-02-09T08:34:07.824Z,84.60
2023-02-09T08:36:37.534Z,84.80
2023-02-09T08:39:05.339Z,83.30
2023-02-09T08:41:32.188Z,82.30
2023-02-09T08:43:58.847Z,81.60
2023-02-09T08:46:25.846Z,81.20
2023-02-09T08:48:52.991Z,81.60
2023-02-09T08:51:19.885Z,80.80
2023-02-09T08:53:52.171Z,81.10
2023-02-09T08:56:20.946Z,80.90
2023-02-09T08:58:48.758Z,81.10
2023-02-09T09:01:15.953Z,79.80
2023-02-09T09:03:42.880Z,79.20
2023-02-09T09:06:11.457Z,79.40
2023-02-09T09:08:38.947Z,79.00
2023-02-09T09:11:13.174Z,79.60
2023-02-09T09:13:40.770Z,79.70
2023-02-09T09:16:13.189Z,78.90
2023-02-09T09:18:40.119Z,79.60
2023-02-09T09:21:06.919Z,79.20
2023-02-09T09:23:33.596Z,78.00
2023-02-09T09:26:02.209Z,78.70
2023-02-09T09:28:29.834Z,78.10
2023-02-09T09:30:58.779Z,78.00
2023-02-09T09:33:25.718Z,78.20
2023-02-09T09:35:52.361Z,77.30
2023-02-09T09:38:19.154Z,76.60
2023-02-09T09:40:46.237Z,76.50
2023-02-09T09:43:33.542Z,76.30
2023-02-09T09:46:01.971Z,75.80
2023-02-09T09:48:37.726Z,77.10
2023-02-09T09:51:22.304Z,74.30
2023-02-09T09:53:53.309Z,74.70
2023-02-09T09:56:21.449Z,76.00
2023-02-09T09:58:49.799Z,76.40
2023-02-09T10:01:20.364Z,75.80
2023-02-09T10:03:47.455Z,73.90
2023-02-09T10:06:20.454Z,74.60
2023-02-09T10:08:56.524Z,75.20
2023-02-09T10:11:45.317Z,76.00
2023-02-09T10:14:12.199Z,75.50
2023-02-09T10:16:39.278Z,76.00
2023-02-09T10:19:27.051Z,76.20
2023-02-09T10:21:55.057Z,76.00
2023-02-09T10:24:29.081Z,75.10
2023-02-09T10:27:14.753Z,74.50
2023-02-09T10:29:42.276Z,73.60
2023-02-09T10:32:29.242Z,72.00
2023-02-09T10:34:57.896Z,74.40
2023-02-09T10:37:37.381Z,72.90
2023-02-09T10:40:13.175Z,72.40
2023-02-09T10:42:49.548Z,74.00
2023-02-09T10:45:25.163Z,71.90
2023-02-09T10:48:10.591Z,70.80
2023-02-09T10:50:58.905Z,71.00
2023-02-09T10:53:30.648Z,70.80
2023-02-09T10:56:05.729Z,71.30
2023-02-09T10:58:37.474Z,73.30
2023-02-09T11:01:10.255Z,71.80
2023-02-09T11:03:48.592Z,71.10
2023-02-09T11:06:19.726Z,70.80
2023-02-09T11:08:58.068Z,67.50
2023-02-09T11:11:37.378Z,65.70
2023-02-09T11:14:09.876Z,65.00
2023-02-09T11:17:07.302Z,62.70
2023-02-09T11:20:01.537Z,63.40
2023-02-09T11:23:00.536Z,64.30
2023-02-09T11:25:41.957Z,63.90
2023-02-09T11:28:31.829Z,61.20
2023-02-09T11:31:17.548Z,57.10
2023-02-09T11:33:53.071Z,53.60
2023-02-09T11:36:31.540Z,47.10
2023-02-09T11:39:20.275Z,40.80
2023-02-09T11:42:30.727Z,37.60
2023-02-09T11:45:06.739Z,34.60
2023-02-09T11:47:42.882Z,30.90
2023-02-09T11:50:19.757Z,31.10
2023-02-09T11:52:57.285Z,31.10
2023-02-09T11:55:39.871Z,29.00
2023-02-09T11:58:12.246Z,27.70
2023-02-09T12:00:57.841Z,26.90
2023-02-09T12:03:28.623Z,26.30
2023-02-09T12:05:56.695Z,27.90
2023-02-09T12:08:35.109Z,28.30
2023-02-09T12:11:25.280Z,26.60
2023-02-09T12:14:13.547Z,27.30
2023-02-09T12:16:45.786Z,27.00
2023-02-09T12:19:33.536Z,27.00
2023-02-09T12:22:35.667Z,27.30
2023-02-09T12:25:17.728Z,27.00
2023-02-09T12:28:16.923Z,26.20
2023-02-09T12:30:43.916Z,24.30
2023-02-09T12:33:30.995Z,23.40
2023-02-09T12:36:09.370Z,23.40
2023-02-09T12:38:57.227Z,24.10
2023-02-09T12:41:35.087Z,23.20
2023-02-09T12:44:11.028Z,24.30
2023-02-09T12:46:46.814Z,23.60
2023-02-09T12:49:22.664Z,23.20
2023-02-09T12:51:52.345Z,22.40
2023-02-09T12:54:40.166Z,21.70
2023-02-09T12:57:16.266Z,21.60
2023-02-09T12:59:52.682Z,23.20
2023-02-09T13:02:30.237Z,26.50
2023-02-09T13:05:11.566Z,27.10
2023-02-09T13:07:56.838Z,25.90
2023-02-09T13:10:39.153Z,25.60
2023-02-09T13:13:10.542Z,24.70
2023-02-09T13:16:00.454Z,23.10
2023-02-09T13:18:55.471Z,23.50
2023-02-09T13:21:27.008Z,22.80
2023-02-09T13:24:06.865Z,23.20
2023-02-09T13:26:37.098Z,23.90
2023-02-09T13:29:19.242Z,23.20
2023-02-09T13:31:55.712Z,22.70
2023-02-09T13:34:40.116Z,24.30
2023-02-09T13:37:26.930Z,25.20
2023-02-09T13:40:03.093Z,25.40
2023-02-09T13:42:35.254Z,24.90
2023-02-09T13:45:02.399Z,23.90
2023-02-09T13:47:29.607Z,23.00
2023-02-09T13:49:58.807Z,24.20
2023-02-09T13:52:26.928Z,23.40
2023-02-09T13:54:54.364Z,24.90
2023-02-09T13:57:39.594Z,24.60
2023-02-09T14:00:28.091Z,24.30
2023-02-09T14:03:02.386Z,25.20
2023-02-09T14:05:48.937Z,26.30
2023-02-09T14:08:18.327Z,26.40
2023-02-09T14:11:26.078Z,26.00
2023-02-09T14:14:21.918Z,25.90
2023-02-09T14:17:22.886Z,25.20
2023-02-09T14:19:52.432Z,25.50
2023-02-09T14:22:38.372Z,24.70
2023-02-09T14:25:14.077Z,23.60
2023-02-09T14:27:45.608Z,24.00
2023-02-09T14:30:20.432Z,23.30
2023-02-09T14:32:55.343Z,23.10
2023-02-09T14:35:24.415Z,23.80
2023-02-09T14:37:53.543Z,22.90
2023-02-09T14:40:32.069Z,23.70
2023-02-09T14:43:11.044Z,24.30
2023-02-09T14:45:47.872Z,25.70
2023-02-09T14:48:20.666Z,26.30
2023-02-09T14:50:49.869Z,27.40
2023-02-09T14:53:17.910Z,28.90
2023-02-09T14:55:45.394Z,30.80
2023-02-09T14:58:30.496Z,31.00
2023-02-09T15:01:01.105Z,33.40
2023-02-09T15:03:28.270Z,33.10
2023-02-09T15:06:00.908Z,34.40
2023-02-09T15:08:31.006Z,35.40
2023-02-09T15:11:01.246Z,35.80
2023-02-09T15:13:30.362Z,35.90
2023-02-09T15:15:57.331Z,37.50
2023-02-09T15:18:26.708Z,37.80
2023-02-09T15:20:53.551Z,38.70
2023-02-09T15:23:20.314Z,39.00
2023-02-09T15:25:48.035Z,38.50
2023-02-09T15:28:27.980Z,38.80
2023-02-09T15:30:56.405Z,39.10
2023-02-09T15:33:23.399Z,38.60
2023-02-09T15:35:50.264Z,38.60
2023-02-09T15:38:18.418Z,38.40
2023-02-09T15:41:06.442Z,39.10
2023-02-09T15:43:52.238Z,39.00
2023-02-09T15:46:37.681Z,39.50
2023-02-09T15:49:06.236Z,39.90
2023-02-09T15:51:36.728Z,39.70
2023-02-09T15:54:09.221Z,39.50
2023-02-09T15:56:37.252Z,39.80
2023-02-09T15:59:05.582Z,40.10
2023-02-09T16:01:35.781Z,40.20
2023-02-09T16:04:13.402Z,40.50
2023-02-09T16:06:47.290Z,40.50
2023-02-09T16:09:21.299Z,40.90
2023-02-09T16:11:48.623Z,41.10
2023-02-09T16:14:18.056Z,41.20
2023-02-09T16:16:45.806Z,41.00
2023-02-09T16:19:13.683Z,40.80
2023-02-09T16:21:43.980Z,40.90
2023-02-09T16:24:37.488Z,41.50
2023-02-09T16:27:14.754Z,41.40
2023-02-09T16:29:41.728Z,42.50
2023-02-09T16:32:16.872Z,43.60
2023-02-09T16:34:44.920Z,43.20
2023-02-09T16:37:15.662Z,43.30
2023-02-09T16:39:43.333Z,43.60
2023-02-09T16:42:12.928Z,43.80
2023-02-09T16:44:40.195Z,44.00
2023-02-09T16:47:18.284Z,44.10
2023-02-09T16:49:59.368Z,44.10
2023-02-09T16:52:27.388Z,44.30
2023-02-09T16:54:58.057Z,44.70
2023-02-09T16:57:26.479Z,44.80
2023-02-09T16:59:54.863Z,44.90
2023-02-09T17:02:42.396Z,44.80
2023-02-09T17:05:26.094Z,45.20
2023-02-09T17:07:59.664Z,45.40
2023-02-09T17:10:29.804Z,46.30
2023-02-09T17:12:56.977Z,46.60
2023-02-09T17:15:31.538Z,47.20
2023-02-09T17:18:04.193Z,47.20
2023-02-09T17:20:38.139Z,47.20
2023-02-09T17:23:05.627Z,47.50
2023-02-09T17:25:33.201Z,47.40
2023-02-09T17:28:00.042Z,47.60
2023-02-09T17:30:26.967Z,47.80
2023-02-09T17:33:01.375Z,47.70
2023-02-09T17:35:58.076Z,47.70
2023-02-09T17:38:22.593Z,47.90
2023-02-09T17:40:50.761Z,47.90
2023-02-09T17:43:17.671Z,48.20
2023-02-09T17:45:49.184Z,48.50
2023-02-09T17:48:17.028Z,49.20
2023-02-09T17:50:44.881Z,49.70
2023-02-09T17:53:18.680Z,49.60
2023-02-09T17:55:46.094Z,49.70
2023-02-09T17:58:14.564Z,50.10
2023-02-09T18:00:42.755Z,50.30
2023-02-09T18:03:16.548Z,51.00
2023-02-09T18:05:43.990Z,50.50
2023-02-09T18:08:11.011Z,50.60
2023-02-09T18:10:38.152Z,50.80
2023-02-09T18:13:05.071Z,50.90
2023-02-09T18:15:35.896Z,51.10
2023-02-09T18:18:03.210Z,51.60
2023-02-09T18:20:33.273Z,51.90
2023-02-09T18:23:02.519Z,51.90
2023-02-09T18:25:35.206Z,52.00
2023-02-09T18:28:02.738Z,52.30
2023-02-09T18:30:38.338Z,52.70
2023-02-09T18:33:06.080Z,53.30
2023-02-09T18:35:39.220Z,53.30
2023-02-09T18:38:08.432Z,53.60
2023-02-09T18:40:35.774Z,54.60
2023-02-09T18:43:04.928Z,54.50
2023-02-09T18:45:32.396Z,54.80
2023-02-09T18:47:59.582Z,55.00
2023-02-09T18:50:29.852Z,55.00
2023-02-09T18:52:59.991Z,54.70
2023-02-09T18:55:29.334Z,54.70
2023-02-09T18:57:58.230Z,54.80
2023-02-09T19:00:25.304Z,55.00
2023-02-09T19:02:54.169Z,55.00
2023-02-09T19:05:21.330Z,54.90
2023-02-09T19:07:48.255Z,55.00
2023-02-09T19:10:18.311Z,55.40
2023-02-09T19:12:45.581Z,55.80
2023-02-09T19:15:13.597Z,56.20
2023-02-09T19:17:41.342Z,56.20
2023-02-09T19:20:19.898Z,56.10
2023-02-09T19:22:47.929Z,56.10
2023-02-09T19:25:15.320Z,56.10
2023-02-09T19:27:42.497Z,56.50
2023-02-09T19:30:13.182Z,56.90
2023-02-09T19:32:41.024Z,57.30
2023-02-09T19:35:08.074Z,57.50
2023-02-09T19:37:35.035Z,57.50
2023-02-09T19:40:10.535Z,57.60
2023-02-09T19:42:37.246Z,58.00
2023-02-09T19:45:04.137Z,57.90
2023-02-09T19:47:30.852Z,57.90
2023-02-09T19:49:58.402Z,57.90
2023-02-09T19:52:26.791Z,58.10
2023-02-09T19:54:54.103Z,58.20
2023-02-09T19:57:21.931Z,58.60
2023-02-09T19:59:48.814Z,58.70
2023-02-09T20:02:16.730Z,58.40
2023-02-09T20:04:45.828Z,58.40
2023-02-09T20:07:14.093Z,58.40
2023-02-09T20:09:41.415Z,58.40
2023-02-09T20:12:08.393Z,58.40
2023-02-09T20:14:35.171Z,58.60
2023-02-09T20:17:01.916Z,58.50
2023-02-09T20:19:28.867Z,58.50
2023-02-09T20:21:55.714Z,58.50
2023-02-09T20:24:23.706Z,58.20
2023-02-09T20:26:50.483Z,58.10
2023-02-09T20:29:18.984Z,58.70
2023-02-09T20:31:45.903Z,58.90
2023-02-09T20:34:15.596Z,59.20
2023-02-09T20:36:44.760Z,59.10
2023-02-09T20:39:15.842Z,59.50
2023-02-09T20:42:04.495Z,59.60
2023-02-09T20:44:50.832Z,59.70
2023-02-09T20:47:18.457Z,59.80
2023-02-09T20:49:45.407Z,59.70
2023-02-09T20:52:12.360Z,59.80
2023-02-09T20:54:39.150Z,59.90
2023-02-09T20:57:05.984Z,60.30
2023-02-09T20:59:34.244Z,60.70
2023-02-09T21:02:01.535Z,60.90
2023-02-09T21:04:30.138Z,61.00
2023-02-09T21:06:58.744Z,61.20
2023-02-09T21:09:26.326Z,61.50
2023-02-09T21:11:53.741Z,61.70
2023-02-09T21:14:32.611Z,61.90
2023-02-09T21:17:06.230Z,62.20
2023-02-09T21:19:36.047Z,62.30
2023-02-09T21:22:02.782Z,62.50
2023-02-09T21:24:29.605Z,63.50
2023-02-09T21:26:56.288Z,63.00
2023-02-09T21:29:23.100Z,63.10
2023-02-09T21:31:51.243Z,63.50
2023-02-09T21:34:18.097Z,63.80
2023-02-09T21:36:45.001Z,64.00
2023-02-09T21:39:12.574Z,64.40
2023-02-09T21:41:58.195Z,64.50
2023-02-09T21:44:25.031Z,64.70
2023-02-09T21:46:52.151Z,65.00
2023-02-09T21:49:18.928Z,65.30
2023-02-09T21:51:45.792Z,66.00
2023-02-09T21:54:14.433Z,66.20
2023-02-09T21:56:41.770Z,65.50
2023-02-09T21:59:08.632Z,65.30
2023-02-09T22:01:36.219Z,65.50
2023-02-09T22:04:03.816Z,66.00
2023-02-09T22:06:31.454Z,65.90
2023-02-09T22:09:00.415Z,66.10
2023-02-09T22:11:27.300Z,66.30
2023-02-09T22:13:54.211Z,66.60
2023-02-09T22:16:22.579Z,67.10
2023-02-09T22:18:49.866Z,67.30
2023-02-09T22:21:17.355Z,67.40
2023-02-09T22:23:44.069Z,67.50
2023-02-09T22:26:13.707Z,67.60
2023-02-09T22:28:41.512Z,68.00
2023-02-09T22:31:17.282Z,69.00
2023-02-09T22:33:44.052Z,70.40
2023-02-09T22:36:18.221Z,70.60
2023-02-09T22:38:45.711Z,72.30
2023-02-09T22:41:24.486Z,72.70
2023-02-09T22:43:56.952Z,71.10
2023-02-09T22:46:29.932Z,70.70
2023-02-09T22:48:58.921Z,70.50
2023-02-09T22:51:28.341Z,70.50
2023-02-09T22:53:55.904Z,70.70
2023-02-09T22:56:23.203Z,70.40
2023-02-09T22:58:52.055Z,70.00
2023-02-09T23:01:18.994Z,69.90
2023-02-09T23:03:45.810Z,70.50
2023-02-09T23:06:17.301Z,72.70
2023-02-09T23:08:44.679Z,74.20
2023-02-09T23:11:13.973Z,75.20
2023-02-09T23:13:41.026Z,77.20
2023-02-09T23:16:14.410Z,78.60
2023-02-09T23:18:49.976Z,78.50
2023-02-09T23:21:17.434Z,77.60
2023-02-09T23:23:44.686Z,76.90
2023-02-09T23:26:12.447Z,78.60
2023-02-09T23:28:39.413Z,81.30
2023-02-09T23:31:08.109Z,82.40
2023-02-09T23:33:36.197Z,83.30
2023-02-09T23:36:07.656Z,83.60
2023-02-09T23:38:34.417Z,83.50
2023-02-09T23:41:09.961Z,84.50
2023-02-09T23:43:36.775Z,85.70
2023-02-09T23:46:05.712Z,89.60
2023-02-09T23:48:33.579Z,89.30
2023-02-09T23:51:06.485Z,90.20
2023-02-09T23:53:34.564Z,90.60
2023-02-09T23:56:05.001Z,91.50
2023-02-09T23:58:36.526Z,92.20
